sensor_id;sensor_type;location;lat;lon;timestamp;pressure;altitude;pressure_sealevel;temperature;humidity
84661;BME280;74889;52.240;20.902;2024-03-23T00:54:33;99268.91;;;10.16;77.60
84661;BME280;74889;52.240;20.902;2024-03-23T00:57:00;99263.78;;;10.16;77.88
84661;BME280;74889;52.240;20.902;2024-03-23T00:59:26;99259.23;;;10.15;77.88
84661;BME280;74889;52.240;20.902;2024-03-23T01:01:54;99259.40;;;10.13;77.96
84661;BME280;74889;52.240;20.902;2024-03-23T01:04:21;99248.58;;;10.13;77.84
84661;BME280;74889;52.240;20.902;2024-03-23T01:06:47;99248.57;;;10.13;78.28
84661;BME280;74889;52.240;20.902;2024-03-23T01:09:13;99253.00;;;10.13;78.30
84661;BME280;74889;52.240;20.902;2024-03-23T01:11:39;99251.29;;;10.12;78.30
84661;BME280;74889;52.240;20.902;2024-03-23T01:14:06;99251.41;;;10.10;78.38
84661;BME280;74889;52.240;20.902;2024-03-23T01:16:32;99244.48;;;10.08;78.53
84661;BME280;74889;52.240;20.902;2024-03-23T01:18:58;99241.66;;;10.06;78.62
84661;BME280;74889;52.240;20.902;2024-03-23T01:21:24;99239.54;;;10.04;78.76
84661;BME280;74889;52.240;20.902;2024-03-23T01:23:49;99237.32;;;10.03;78.91
84661;BME280;74889;52.240;20.902;2024-03-23T01:26:16;99239.02;;;10.02;78.79
84661;BME280;74889;52.240;20.902;2024-03-23T01:28:41;99231.33;;;10.01;79.09
84661;BME280;74889;52.240;20.902;2024-03-23T01:31:07;99235.67;;;10.02;78.97
84661;BME280;74889;52.240;20.902;2024-03-23T01:33:32;99237.09;;;10.00;79.30
84661;BME280;74889;52.240;20.902;2024-03-23T01:35:59;99242.79;;;9.99;79.26
84661;BME280;74889;52.240;20.902;2024-03-23T01:38:25;99243.77;;;9.97;79.18
84661;BME280;74889;52.240;20.902;2024-03-23T01:40:57;99241.52;;;9.96;79.51
84661;BME280;74889;52.240;20.902;2024-03-23T01:43:22;99234.16;;;9.95;79.46
84661;BME280;74889;52.240;20.902;2024-03-23T01:45:50;99235.30;;;9.94;79.66
84661;BME280;74889;52.240;20.902;2024-03-23T01:48:16;99229.73;;;9.94;79.58
84661;BME280;74889;52.240;20.902;2024-03-23T01:50:41;99219.13;;;9.93;79.77
84661;BME280;74889;52.240;20.902;2024-03-23T01:53:07;99216.95;;;9.94;79.87
84661;BME280;74889;52.240;20.902;2024-03-23T01:55:32;99219.73;;;9.93;80.03
84661;BME280;74889;52.240;20.902;2024-03-23T01:57:58;99222.45;;;9.93;80.06
84661;BME280;74889;52.240;20.902;2024-03-23T02:00:24;99226.50;;;9.91;80.09
84661;BME280;74889;52.240;20.902;2024-03-23T02:02:52;99223.13;;;9.91;80.22
84661;BME280;74889;52.240;20.902;2024-03-23T02:05:17;99213.79;;;9.90;80.46
84661;BME280;74889;52.240;20.902;2024-03-23T02:07:43;99205.75;;;9.90;80.28
84661;BME280;74889;52.240;20.902;2024-03-23T02:10:10;99210.87;;;9.89;80.34
84661;BME280;74889;52.240;20.902;2024-03-23T02:12:37;99215.00;;;9.89;80.61
84661;BME280;74889;52.240;20.902;2024-03-23T02:15:02;99213.64;;;9.89;80.58
84661;BME280;74889;52.240;20.902;2024-03-23T02:17:30;99209.30;;;9.88;80.59
84661;BME280;74889;52.240;20.902;2024-03-23T02:19:56;99208.53;;;9.87;81.05
84661;BME280;74889;52.240;20.902;2024-03-23T02:22:22;99206.83;;;9.87;80.91
84661;BME280;74889;52.240;20.902;2024-03-23T02:24:47;99204.52;;;9.87;81.13
84661;BME280;74889;52.240;20.902;2024-03-23T02:27:14;99202.21;;;9.87;81.06
84661;BME280;74889;52.240;20.902;2024-03-23T02:29:39;99203.01;;;9.86;81.22
84661;BME280;74889;52.240;20.902;2024-03-23T02:32:05;99201.01;;;9.84;81.30
84661;BME280;74889;52.240;20.902;2024-03-23T02:34:31;99199.00;;;9.83;81.41
84661;BME280;74889;52.240;20.902;2024-03-23T02:36:57;99194.35;;;9.83;81.54
84661;BME280;74889;52.240;20.902;2024-03-23T02:39:22;99197.52;;;9.84;81.61
84661;BME280;74889;52.240;20.902;2024-03-23T02:41:49;99197.16;;;9.84;81.55
84661;BME280;74889;52.240;20.902;2024-03-23T02:44:15;99195.75;;;9.83;81.73
84661;BME280;74889;52.240;20.902;2024-03-23T02:46:40;99190.66;;;9.83;81.66
84661;BME280;74889;52.240;20.902;2024-03-23T02:49:07;99190.01;;;9.83;81.99
84661;BME280;74889;52.240;20.902;2024-03-23T02:51:34;99183.61;;;9.82;82.03
84661;BME280;74889;52.240;20.902;2024-03-23T02:54:00;99179.05;;;9.83;82.28
84661;BME280;74889;52.240;20.902;2024-03-23T02:56:27;99172.55;;;9.84;82.26
84661;BME280;74889;52.240;20.902;2024-03-23T02:58:52;99172.12;;;9.84;82.22
84661;BME280;74889;52.240;20.902;2024-03-23T03:01:18;99171.86;;;9.83;82.26
84661;BME280;74889;52.240;20.902;2024-03-23T03:03:44;99172.49;;;9.83;82.31
84661;BME280;74889;52.240;20.902;2024-03-23T03:06:10;99162.55;;;9.82;82.61
84661;BME280;74889;52.240;20.902;2024-03-23T03:08:36;99163.92;;;9.82;82.59
84661;BME280;74889;52.240;20.902;2024-03-23T03:11:02;99156.97;;;9.82;82.60
84661;BME280;74889;52.240;20.902;2024-03-23T03:13:27;99157.09;;;9.83;82.80
84661;BME280;74889;52.240;20.902;2024-03-23T03:15:53;99156.20;;;9.83;82.78
84661;BME280;74889;52.240;20.902;2024-03-23T03:18:18;99153.35;;;9.83;82.92
84661;BME280;74889;52.240;20.902;2024-03-23T03:20:44;99154.92;;;9.83;82.77
84661;BME280;74889;52.240;20.902;2024-03-23T03:23:11;99155.99;;;9.83;83.00
84661;BME280;74889;52.240;20.902;2024-03-23T03:25:36;99158.42;;;9.84;83.19
84661;BME280;74889;52.240;20.902;2024-03-23T03:28:02;99156.45;;;9.84;83.04
84661;BME280;74889;52.240;20.902;2024-03-23T03:30:29;99159.30;;;9.84;83.21
84661;BME280;74889;52.240;20.902;2024-03-23T03:32:55;99162.74;;;9.83;83.35
84661;BME280;74889;52.240;20.902;2024-03-23T03:35:21;99163.75;;;9.83;83.34
84661;BME280;74889;52.240;20.902;2024-03-23T03:37:46;99163.90;;;9.81;83.45
84661;BME280;74889;52.240;20.902;2024-03-23T03:40:13;99162.70;;;9.81;83.60
84661;BME280;74889;52.240;20.902;2024-03-23T03:42:40;99164.87;;;9.81;83.99
84661;BME280;74889;52.240;20.902;2024-03-23T03:45:06;99163.80;;;9.80;83.71
84661;BME280;74889;52.240;20.902;2024-03-23T03:47:33;99159.31;;;9.81;83.86
84661;BME280;74889;52.240;20.902;2024-03-23T03:50:00;99155.39;;;9.81;83.94
84661;BME280;74889;52.240;20.902;2024-03-23T03:52:25;99152.63;;;9.80;84.04
84661;BME280;74889;52.240;20.902;2024-03-23T03:54:51;99155.23;;;9.80;84.16
84661;BME280;74889;52.240;20.902;2024-03-23T03:57:16;99154.66;;;9.81;84.25
84661;BME280;74889;52.240;20.902;2024-03-23T03:59:43;99149.27;;;9.81;84.23
84661;BME280;74889;52.240;20.902;2024-03-23T04:02:10;99149.55;;;9.82;84.18
84661;BME280;74889;52.240;20.902;2024-03-23T04:04:37;99144.73;;;9.82;84.24
84661;BME280;74889;52.240;20.902;2024-03-23T04:07:03;99145.41;;;9.82;84.34
84661;BME280;74889;52.240;20.902;2024-03-23T04:09:30;99147.86;;;9.83;84.44
84661;BME280;74889;52.240;20.902;2024-03-23T04:11:56;99142.59;;;9.83;84.62
84661;BME280;74889;52.240;20.902;2024-03-23T04:14:21;99141.62;;;9.84;84.56
84661;BME280;74889;52.240;20.902;2024-03-23T04:16:47;99142.42;;;9.85;84.53
84661;BME280;74889;52.240;20.902;2024-03-23T04:19:13;99139.10;;;9.86;84.52
84661;BME280;74889;52.240;20.902;2024-03-23T04:21:39;99134.79;;;9.86;84.77
84661;BME280;74889;52.240;20.902;2024-03-23T04:24:05;99129.42;;;9.86;84.74
84661;BME280;74889;52.240;20.902;2024-03-23T04:26:40;99128.66;;;9.86;84.77
84661;BME280;74889;52.240;20.902;2024-03-23T04:29:06;99121.87;;;9.87;84.71
84661;BME280;74889;52.240;20.902;2024-03-23T04:31:32;99121.09;;;9.87;85.12
84661;BME280;74889;52.240;20.902;2024-03-23T04:34:02;99114.30;;;9.87;84.80
84661;BME280;74889;52.240;20.902;2024-03-23T04:36:28;99110.67;;;9.88;84.75
84661;BME280;74889;52.240;20.902;2024-03-23T04:38:56;99111.02;;;9.88;84.84
84661;BME280;74889;52.240;20.902;2024-03-23T04:41:22;99120.48;;;9.89;84.98
84661;BME280;74889;52.240;20.902;2024-03-23T04:43:47;99114.85;;;9.90;85.00
84661;BME280;74889;52.240;20.902;2024-03-23T04:46:13;99111.90;;;9.91;84.84
84661;BME280;74889;52.240;20.902;2024-03-23T04:48:39;99106.98;;;9.90;85.16
84661;BME280;74889;52.240;20.902;2024-03-23T04:51:05;99106.81;;;9.90;85.06
84661;BME280;74889;52.240;20.902;2024-03-23T04:53:30;99096.73;;;9.91;85.09
84661;BME280;74889;52.240;20.902;2024-03-23T04:55:56;99088.26;;;9.91;85.15
84661;BME280;74889;52.240;20.902;2024-03-23T04:58:22;99081.77;;;9.92;84.97
84661;BME280;74889;52.240;20.902;2024-03-23T05:00:56;99085.20;;;9.93;84.95
84661;BME280;74889;52.240;20.902;2024-03-23T05:03:23;99091.89;;;9.94;84.90
84661;BME280;74889;52.240;20.902;2024-03-23T05:05:49;99088.35;;;9.94;85.23
84661;BME280;74889;52.240;20.902;2024-03-23T05:08:15;99085.74;;;9.93;85.24
84661;BME280;74889;52.240;20.902;2024-03-23T05:10:42;99088.09;;;9.93;85.08
84661;BME280;74889;52.240;20.902;2024-03-23T05:13:08;99089.09;;;9.94;85.31
84661;BME280;74889;52.240;20.902;2024-03-23T05:15:34;99090.35;;;9.93;85.38
84661;BME280;74889;52.240;20.902;2024-03-23T05:18:00;99098.23;;;9.93;85.23
84661;BME280;74889;52.240;20.902;2024-03-23T05:20:26;99097.22;;;9.94;85.47
84661;BME280;74889;52.240;20.902;2024-03-23T05:22:51;99094.04;;;9.96;85.47
84661;BME280;74889;52.240;20.902;2024-03-23T05:25:17;99088.40;;;9.97;85.16
84661;BME280;74889;52.240;20.902;2024-03-23T05:27:44;99085.59;;;9.98;85.80
84661;BME280;74889;52.240;20.902;2024-03-23T05:30:10;99089.60;;;9.99;85.35
84661;BME280;74889;52.240;20.902;2024-03-23T05:32:37;99084.24;;;9.99;85.46
84661;BME280;74889;52.240;20.902;2024-03-23T05:35:07;99087.05;;;9.99;85.66
84661;BME280;74889;52.240;20.902;2024-03-23T05:37:33;99082.27;;;9.99;85.55
84661;BME280;74889;52.240;20.902;2024-03-23T05:40:04;99080.16;;;9.98;85.47
84661;BME280;74889;52.240;20.902;2024-03-23T05:42:30;99077.28;;;9.99;85.45
84661;BME280;74889;52.240;20.902;2024-03-23T05:44:55;99077.61;;;9.99;85.67
84661;BME280;74889;52.240;20.902;2024-03-23T05:47:21;99077.50;;;10.00;85.92
84661;BME280;74889;52.240;20.902;2024-03-23T05:49:47;99068.55;;;10.00;85.54
84661;BME280;74889;52.240;20.902;2024-03-23T05:52:13;99066.42;;;10.00;85.54
84661;BME280;74889;52.240;20.902;2024-03-23T05:54:39;99069.50;;;10.01;85.70
84661;BME280;74889;52.240;20.902;2024-03-23T05:57:04;99068.48;;;9.99;85.47
84661;BME280;74889;52.240;20.902;2024-03-23T05:59:34;99070.87;;;10.02;85.67
84661;BME280;74889;52.240;20.902;2024-03-23T06:01:59;99062.89;;;10.03;85.62
84661;BME280;74889;52.240;20.902;2024-03-23T06:04:25;99058.03;;;10.03;85.59
84661;BME280;74889;52.240;20.902;2024-03-23T06:06:52;99056.80;;;10.04;85.85
84661;BME280;74889;52.240;20.902;2024-03-23T06:09:18;99058.53;;;10.05;85.34
84661;BME280;74889;52.240;20.902;2024-03-23T06:11:45;99057.19;;;10.06;86.05
84661;BME280;74889;52.240;20.902;2024-03-23T06:14:10;99057.12;;;10.06;86.05
84661;BME280;74889;52.240;20.902;2024-03-23T06:16:36;99059.70;;;10.07;85.39
84661;BME280;74889;52.240;20.902;2024-03-23T06:19:03;99066.28;;;10.09;85.92
84661;BME280;74889;52.240;20.902;2024-03-23T06:21:30;99060.30;;;10.10;85.72
84661;BME280;74889;52.240;20.902;2024-03-23T06:23:56;99058.33;;;10.11;85.88
84661;BME280;74889;52.240;20.902;2024-03-23T06:26:23;99056.24;;;10.12;85.89
84661;BME280;74889;52.240;20.902;2024-03-23T06:28:48;99052.48;;;10.14;86.10
84661;BME280;74889;52.240;20.902;2024-03-23T06:31:15;99050.47;;;10.15;86.19
84661;BME280;74889;52.240;20.902;2024-03-23T06:33:41;99050.83;;;10.14;85.81
84661;BME280;74889;52.240;20.902;2024-03-23T06:36:11;99051.73;;;10.14;86.06
84661;BME280;74889;52.240;20.902;2024-03-23T06:38:37;99049.22;;;10.14;86.40
84661;BME280;74889;52.240;20.902;2024-03-23T06:41:04;99047.45;;;10.14;85.84
84661;BME280;74889;52.240;20.902;2024-03-23T06:43:31;99045.15;;;10.14;86.09
84661;BME280;74889;52.240;20.902;2024-03-23T06:45:56;99040.65;;;10.14;86.38
84661;BME280;74889;52.240;20.902;2024-03-23T06:48:22;99034.98;;;10.16;86.26
84661;BME280;74889;52.240;20.902;2024-03-23T06:50:49;99028.80;;;10.16;86.08
84661;BME280;74889;52.240;20.902;2024-03-23T06:53:15;99021.28;;;10.16;85.87
84661;BME280;74889;52.240;20.902;2024-03-23T06:55:42;99022.05;;;10.18;85.61
84661;BME280;74889;52.240;20.902;2024-03-23T06:58:08;99023.79;;;10.18;86.28
84661;BME280;74889;52.240;20.902;2024-03-23T07:00:34;99025.42;;;10.19;86.19
84661;BME280;74889;52.240;20.902;2024-03-23T07:03:02;99023.52;;;10.20;85.97
84661;BME280;74889;52.240;20.902;2024-03-23T07:06:20;99027.27;;;10.22;86.21
84661;BME280;74889;52.240;20.902;2024-03-23T07:08:46;99024.92;;;10.22;86.12
84661;BME280;74889;52.240;20.902;2024-03-23T07:11:12;99022.91;;;10.22;85.93
84661;BME280;74889;52.240;20.902;2024-03-23T07:13:49;99019.52;;;10.24;85.88
84661;BME280;74889;52.240;20.902;2024-03-23T07:16:16;99020.02;;;10.24;85.72
84661;BME280;74889;52.240;20.902;2024-03-23T07:18:43;99018.90;;;10.24;86.17
84661;BME280;74889;52.240;20.902;2024-03-23T07:21:09;99006.66;;;10.24;86.38
84661;BME280;74889;52.240;20.902;2024-03-23T07:23:35;99011.56;;;10.23;86.04
84661;BME280;74889;52.240;20.902;2024-03-23T07:26:02;99010.62;;;10.24;86.58
84661;BME280;74889;52.240;20.902;2024-03-23T07:28:28;99005.39;;;10.24;86.14
84661;BME280;74889;52.240;20.902;2024-03-23T07:33:26;99003.45;;;10.24;86.38
84661;BME280;74889;52.240;20.902;2024-03-23T07:35:51;99003.35;;;10.23;86.53
84661;BME280;74889;52.240;20.902;2024-03-23T07:38:17;99003.91;;;10.25;86.46
84661;BME280;74889;52.240;20.902;2024-03-23T07:40:44;98998.88;;;10.25;86.33
84661;BME280;74889;52.240;20.902;2024-03-23T07:43:10;98993.85;;;10.25;86.35
84661;BME280;74889;52.240;20.902;2024-03-23T07:45:36;98993.48;;;10.25;86.80
84661;BME280;74889;52.240;20.902;2024-03-23T07:48:04;98989.88;;;10.25;86.32
84661;BME280;74889;52.240;20.902;2024-03-23T07:50:29;98980.94;;;10.25;86.35
84661;BME280;74889;52.240;20.902;2024-03-23T07:52:56;98978.95;;;10.25;86.58
84661;BME280;74889;52.240;20.902;2024-03-23T07:55:22;98977.80;;;10.26;86.47
84661;BME280;74889;52.240;20.902;2024-03-23T07:57:51;98974.48;;;10.27;86.75
84661;BME280;74889;52.240;20.902;2024-03-23T08:00:17;98973.09;;;10.30;86.32
84661;BME280;74889;52.240;20.902;2024-03-23T08:02:43;98968.69;;;10.31;86.33
84661;BME280;74889;52.240;20.902;2024-03-23T08:05:09;98965.27;;;10.32;86.43
84661;BME280;74889;52.240;20.902;2024-03-23T08:07:34;98964.71;;;10.34;86.88
84661;BME280;74889;52.240;20.902;2024-03-23T08:10:01;98965.94;;;10.36;86.53
84661;BME280;74889;52.240;20.902;2024-03-23T08:12:28;98963.02;;;10.36;86.63
84661;BME280;74889;52.240;20.902;2024-03-23T08:14:54;98957.64;;;10.36;86.64
84661;BME280;74889;52.240;20.902;2024-03-23T08:17:20;98958.49;;;10.37;86.55
84661;BME280;74889;52.240;20.902;2024-03-23T08:19:46;98953.13;;;10.37;86.87
84661;BME280;74889;52.240;20.902;2024-03-23T08:22:13;98955.52;;;10.36;86.40
84661;BME280;74889;52.240;20.902;2024-03-23T08:24:38;98948.73;;;10.37;86.92
84661;BME280;74889;52.240;20.902;2024-03-23T08:27:04;98942.88;;;10.40;86.24
84661;BME280;74889;52.240;20.902;2024-03-23T08:29:30;98944.02;;;10.44;86.70
84661;BME280;74889;52.240;20.902;2024-03-23T08:31:55;98938.22;;;10.48;86.86
84661;BME280;74889;52.240;20.902;2024-03-23T08:34:22;98933.44;;;10.50;86.70
84661;BME280;74889;52.240;20.902;2024-03-23T08:36:47;98918.98;;;10.52;86.97
84661;BME280;74889;52.240;20.902;2024-03-23T08:39:13;98915.91;;;10.53;87.07
84661;BME280;74889;52.240;20.902;2024-03-23T08:41:39;98911.29;;;10.57;86.86
84661;BME280;74889;52.240;20.902;2024-03-23T08:44:06;98905.48;;;10.63;87.00
84661;BME280;74889;52.240;20.902;2024-03-23T08:46:32;98901.12;;;10.67;87.41
84661;BME280;74889;52.240;20.902;2024-03-23T08:48:58;98897.80;;;10.72;87.49
84661;BME280;74889;52.240;20.902;2024-03-23T08:51:24;98897.38;;;10.80;87.08
84661;BME280;74889;52.240;20.902;2024-03-23T08:53:51;98892.38;;;10.87;87.37
84661;BME280;74889;52.240;20.902;2024-03-23T08:56:17;98886.23;;;10.95;87.59
84661;BME280;74889;52.240;20.902;2024-03-23T08:58:42;98884.20;;;11.03;87.41
84661;BME280;74889;52.240;20.902;2024-03-23T09:01:10;98881.52;;;11.10;87.63
84661;BME280;74889;52.240;20.902;2024-03-23T09:03:36;98871.41;;;11.16;87.46
84661;BME280;74889;52.240;20.902;2024-03-23T09:06:07;98871.90;;;11.22;87.17
84661;BME280;74889;52.240;20.902;2024-03-23T09:08:32;98864.13;;;11.29;87.28
84661;BME280;74889;52.240;20.902;2024-03-23T09:11:03;98858.64;;;11.35;87.28
84661;BME280;74889;52.240;20.902;2024-03-23T09:13:32;98845.30;;;11.42;87.38
84661;BME280;74889;52.240;20.902;2024-03-23T09:15:59;98844.79;;;11.48;86.98
84661;BME280;74889;52.240;20.902;2024-03-23T09:18:25;98839.84;;;11.55;86.92
84661;BME280;74889;52.240;20.902;2024-03-23T09:20:50;98833.30;;;11.63;86.98
84661;BME280;74889;52.240;20.902;2024-03-23T09:23:16;98832.55;;;11.74;87.24
84661;BME280;74889;52.240;20.902;2024-03-23T09:25:41;98827.75;;;11.81;86.78
84661;BME280;74889;52.240;20.902;2024-03-23T09:28:07;98824.02;;;11.90;86.93
84661;BME280;74889;52.240;20.902;2024-03-23T09:30:36;98821.04;;;11.96;86.80
84661;BME280;74889;52.240;20.902;2024-03-23T09:33:08;98819.01;;;12.02;86.50
84661;BME280;74889;52.240;20.902;2024-03-23T09:35:40;98811.60;;;12.07;86.47
84661;BME280;74889;52.240;20.902;2024-03-23T09:38:06;98815.23;;;12.12;86.23
84661;BME280;74889;52.240;20.902;2024-03-23T09:40:44;98814.79;;;12.17;85.98
84661;BME280;74889;52.240;20.902;2024-03-23T09:43:09;98814.86;;;12.22;85.93
84661;BME280;74889;52.240;20.902;2024-03-23T09:45:39;98812.40;;;12.25;85.62
84661;BME280;74889;52.240;20.902;2024-03-23T09:48:08;98807.06;;;12.29;85.37
84661;BME280;74889;52.240;20.902;2024-03-23T09:50:39;98800.09;;;12.33;85.27
84661;BME280;74889;52.240;20.902;2024-03-23T09:53:10;98791.05;;;12.40;85.11
84661;BME280;74889;52.240;20.902;2024-03-23T09:55:37;98785.66;;;12.47;85.05
84661;BME280;74889;52.240;20.902;2024-03-23T09:58:05;98781.19;;;12.54;84.89
84661;BME280;74889;52.240;20.902;2024-03-23T10:00:34;98776.99;;;12.59;84.58
84661;BME280;74889;52.240;20.902;2024-03-23T10:03:01;98762.34;;;12.64;84.34
84661;BME280;74889;52.240;20.902;2024-03-23T10:05:28;98754.41;;;12.69;84.29
84661;BME280;74889;52.240;20.902;2024-03-23T10:07:54;98740.23;;;12.73;83.99
84661;BME280;74889;52.240;20.902;2024-03-23T10:10:20;98726.13;;;12.75;83.52
84661;BME280;74889;52.240;20.902;2024-03-23T10:12:49;98722.88;;;12.78;83.21
84661;BME280;74889;52.240;20.902;2024-03-23T10:15:20;98719.41;;;12.82;83.08
84661;BME280;74889;52.240;20.902;2024-03-23T10:17:46;98713.09;;;12.88;83.25
84661;BME280;74889;52.240;20.902;2024-03-23T10:20:12;98709.60;;;12.94;83.09
84661;BME280;74889;52.240;20.902;2024-03-23T10:22:38;98704.10;;;13.00;82.77
84661;BME280;74889;52.240;20.902;2024-03-23T10:25:09;98694.83;;;13.05;81.95
84661;BME280;74889;52.240;20.902;2024-03-23T10:27:35;98687.05;;;13.10;81.57
84661;BME280;74889;52.240;20.902;2024-03-23T10:30:09;98682.95;;;13.13;81.05
84661;BME280;74889;52.240;20.902;2024-03-23T10:32:36;98678.99;;;13.18;80.46
84661;BME280;74889;52.240;20.902;2024-03-23T10:35:20;98670.59;;;13.21;80.10
84661;BME280;74889;52.240;20.902;2024-03-23T10:37:49;98663.30;;;13.26;79.96
84661;BME280;74889;52.240;20.902;2024-03-23T10:40:15;98662.02;;;13.32;79.38
84661;BME280;74889;52.240;20.902;2024-03-23T10:42:41;98657.17;;;13.35;78.59
84661;BME280;74889;52.240;20.902;2024-03-23T10:45:07;98651.92;;;13.40;78.10
84661;BME280;74889;52.240;20.902;2024-03-23T10:47:35;98646.82;;;13.43;77.69
84661;BME280;74889;52.240;20.902;2024-03-23T10:50:05;98648.48;;;13.44;77.20
84661;BME280;74889;52.240;20.902;2024-03-23T10:52:33;98646.20;;;13.48;77.28
84661;BME280;74889;52.240;20.902;2024-03-23T10:55:00;98639.12;;;13.50;77.42
84661;BME280;74889;52.240;20.902;2024-03-23T10:57:31;98625.98;;;13.55;77.30
84661;BME280;74889;52.240;20.902;2024-03-23T11:00:02;98612.25;;;13.58;76.65
84661;BME280;74889;52.240;20.902;2024-03-23T11:02:29;98601.30;;;13.61;76.30
84661;BME280;74889;52.240;20.902;2024-03-23T11:04:56;98598.98;;;13.64;75.43
84661;BME280;74889;52.240;20.902;2024-03-23T11:07:33;98600.10;;;13.68;75.00
84661;BME280;74889;52.240;20.902;2024-03-23T11:09:59;98603.15;;;13.71;75.05
84661;BME280;74889;52.240;20.902;2024-03-23T11:12:25;98604.10;;;13.75;74.68
84661;BME280;74889;52.240;20.902;2024-03-23T11:17:25;98603.25;;;13.84;74.23
84661;BME280;74889;52.240;20.902;2024-03-23T11:20:05;98599.92;;;13.87;73.95
84661;BME280;74889;52.240;20.902;2024-03-23T11:22:37;98595.32;;;13.92;74.45
84661;BME280;74889;52.240;20.902;2024-03-23T11:25:22;98583.16;;;13.96;74.11
84661;BME280;74889;52.240;20.902;2024-03-23T11:27:53;98581.89;;;14.03;74.25
84661;BME280;74889;52.240;20.902;2024-03-23T11:30:27;98580.04;;;14.10;74.28
84661;BME280;74889;52.240;20.902;2024-03-23T11:32:56;98576.11;;;14.16;74.26
84661;BME280;74889;52.240;20.902;2024-03-23T11:35:33;98570.43;;;14.22;74.05
84661;BME280;74889;52.240;20.902;2024-03-23T11:43:05;98555.00;;;14.38;73.14
84661;BME280;74889;52.240;20.902;2024-03-23T11:45:35;98551.20;;;14.45;72.69
84661;BME280;74889;52.240;20.902;2024-03-23T11:48:05;98547.59;;;14.51;72.48
84661;BME280;74889;52.240;20.902;2024-03-23T11:50:31;98542.86;;;14.56;71.75
84661;BME280;74889;52.240;20.902;2024-03-23T11:53:18;98537.09;;;14.61;70.86
84661;BME280;74889;52.240;20.902;2024-03-23T11:55:58;98531.00;;;14.66;70.70
84661;BME280;74889;52.240;20.902;2024-03-23T11:58:25;98523.21;;;14.70;70.47
84661;BME280;74889;52.240;20.902;2024-03-23T12:00:59;98524.84;;;14.74;70.30
84661;BME280;74889;52.240;20.902;2024-03-23T12:03:26;98519.76;;;14.77;70.29
84661;BME280;74889;52.240;20.902;2024-03-23T12:05:54;98509.85;;;14.79;70.28
84661;BME280;74889;52.240;20.902;2024-03-23T12:10:48;98503.53;;;14.86;69.87
84661;BME280;74889;52.240;20.902;2024-03-23T12:13:16;98497.55;;;14.90;69.45
84661;BME280;74889;52.240;20.902;2024-03-23T12:15:44;98499.46;;;14.95;69.54
84661;BME280;74889;52.240;20.902;2024-03-23T12:18:10;98495.73;;;15.00;69.70
84661;BME280;74889;52.240;20.902;2024-03-23T12:20:37;98489.90;;;15.03;68.90
84661;BME280;74889;52.240;20.902;2024-03-23T12:23:07;98479.77;;;15.04;68.74
84661;BME280;74889;52.240;20.902;2024-03-23T12:25:34;98481.91;;;15.08;67.97
84661;BME280;74889;52.240;20.902;2024-03-23T12:28:00;98477.66;;;15.09;67.74
84661;BME280;74889;52.240;20.902;2024-03-23T12:30:26;98474.70;;;15.10;67.86
84661;BME280;74889;52.240;20.902;2024-03-23T12:32:51;98467.56;;;15.14;67.29
84661;BME280;74889;52.240;20.902;2024-03-23T12:35:17;98461.60;;;15.15;67.35
84661;BME280;74889;52.240;20.902;2024-03-23T12:37:43;98460.46;;;15.17;67.34
84661;BME280;74889;52.240;20.902;2024-03-23T12:40:09;98462.64;;;15.19;67.42
84661;BME280;74889;52.240;20.902;2024-03-23T12:42:35;98455.79;;;15.19;66.90
84661;BME280;74889;52.240;20.902;2024-03-23T12:45:01;98454.05;;;15.18;66.79
84661;BME280;74889;52.240;20.902;2024-03-23T12:47:26;98449.02;;;15.18;66.67
84661;BME280;74889;52.240;20.902;2024-03-23T12:49:52;98440.83;;;15.19;66.37
84661;BME280;74889;52.240;20.902;2024-03-23T12:52:19;98433.05;;;15.17;66.44
84661;BME280;74889;52.240;20.902;2024-03-23T12:54:46;98432.45;;;15.17;66.16
84661;BME280;74889;52.240;20.902;2024-03-23T12:57:13;98426.77;;;15.18;66.22
84661;BME280;74889;52.240;20.902;2024-03-23T12:59:40;98420.67;;;15.19;66.26
84661;BME280;74889;52.240;20.902;2024-03-23T13:02:06;98411.61;;;15.19;66.18
84661;BME280;74889;52.240;20.902;2024-03-23T13:04:32;98405.56;;;15.19;66.30
84661;BME280;74889;52.240;20.902;2024-03-23T13:06:58;98400.70;;;15.19;66.16
84661;BME280;74889;52.240;20.902;2024-03-23T13:09:23;98392.00;;;15.19;65.82
84661;BME280;74889;52.240;20.902;2024-03-23T13:11:49;98389.84;;;15.19;65.85
84661;BME280;74889;52.240;20.902;2024-03-23T13:14:14;98385.31;;;15.19;65.59
84661;BME280;74889;52.240;20.902;2024-03-23T13:16:42;98379.02;;;15.18;65.52
84661;BME280;74889;52.240;20.902;2024-03-23T13:19:09;98379.77;;;15.18;65.38
84661;BME280;74889;52.240;20.902;2024-03-23T13:21:34;98384.05;;;15.18;65.43
84661;BME280;74889;52.240;20.902;2024-03-23T13:24:00;98377.63;;;15.19;65.52
84661;BME280;74889;52.240;20.902;2024-03-23T13:26:26;98365.33;;;15.19;65.51
84661;BME280;74889;52.240;20.902;2024-03-23T13:28:52;98360.05;;;15.20;65.67
84661;BME280;74889;52.240;20.902;2024-03-23T13:31:18;98353.48;;;15.20;65.23
84661;BME280;74889;52.240;20.902;2024-03-23T13:33:44;98347.35;;;15.22;65.39
84661;BME280;74889;52.240;20.902;2024-03-23T13:36:09;98341.70;;;15.22;65.73
84661;BME280;74889;52.240;20.902;2024-03-23T13:38:35;98337.61;;;15.23;65.63
84661;BME280;74889;52.240;20.902;2024-03-23T13:41:00;98327.38;;;15.24;65.48
84661;BME280;74889;52.240;20.902;2024-03-23T13:43:27;98323.89;;;15.24;65.72
84661;BME280;74889;52.240;20.902;2024-03-23T13:45:55;98322.50;;;15.25;65.53
84661;BME280;74889;52.240;20.902;2024-03-23T13:48:23;98319.92;;;15.25;65.56
84661;BME280;74889;52.240;20.902;2024-03-23T13:51:02;98314.23;;;15.26;65.72
84661;BME280;74889;52.240;20.902;2024-03-23T13:53:28;98310.08;;;15.25;65.24
84661;BME280;74889;52.240;20.902;2024-03-23T13:55:53;98310.80;;;15.24;65.34
84661;BME280;74889;52.240;20.902;2024-03-23T13:58:21;98306.77;;;15.21;65.19